Time;durP1;ratioP1;P1;durP2;ratioP2;P2;SDS_P1;SDS_P2;PMS_P1;PMS_P2;Temp;Humidity;BMP_temperature;BMP_pressure;BME280_temperature;BME280_humidity;BME280_pressure;Samples;Min_cycle;Max_cycle;Signal;HPM_P1;HPM_P2
2023/01/06 00:02:01;;;;;;;45.80;9.88;;;10.00;99.90;;;;;;4807399;29;20058;-88
2023/01/06 00:04:27;;;;;;;33.08;7.65;;;10.10;99.90;;;;;;4879296;29;20115;-88
2023/01/06 00:06:53;;;;;;;34.15;9.43;;;10.10;99.90;;;;;;4863667;29;20147;-87
2023/01/06 00:09:27;;;;;;;30.33;8.13;;;10.70;99.90;;;;;;4863379;29;20530;-89
2023/01/06 00:12:12;;;;;;;36.83;8.63;;;9.50;99.90;;;;;;4864073;29;20211;-91
2023/01/06 00:14:38;;;;;;;47.63;9.30;;;10.10;99.90;;;;;;4863457;29;20195;-89
2023/01/06 00:17:09;;;;;;;36.75;7.93;;;10.20;99.90;;;;;;4863579;29;20147;-88
2023/01/06 00:19:34;;;;;;;30.45;7.68;;;10.10;99.90;;;;;;4896319;29;20048;-92
2023/01/06 00:22:12;;;;;;;38.38;8.18;;;10.10;99.90;;;;;;4879513;29;20052;-91
2023/01/06 00:24:55;;;;;;;29.15;7.25;;;9.60;99.90;;;;;;4863661;29;20581;-89
2023/01/06 00:27:37;;;;;;;31.55;7.72;;;10.00;99.90;;;;;;4863803;29;20048;-92
2023/01/06 00:30:06;;;;;;;35.03;8.65;;;10.10;99.90;;;;;;4879460;29;20069;-92
2023/01/06 00:32:32;;;;;;;31.80;6.72;;;10.20;99.90;;;;;;4895587;29;20052;-86
2023/01/06 00:35:20;;;;;;;36.05;7.97;;;11.00;99.90;;;;;;4895650;29;20061;-90
2023/01/06 00:37:46;;;;;;;36.28;8.18;;;9.90;99.90;;;;;;4878321;29;20052;-89
2023/01/06 00:40:14;;;;;;;35.80;7.65;;;10.10;99.90;;;;;;4863544;29;20235;-91
2023/01/06 00:42:56;;;;;;;36.20;7.60;;;10.10;99.90;;;;;;4869057;29;20464;-89
2023/01/06 00:45:33;;;;;;;33.63;7.53;;;10.90;99.90;;;;;;4901858;29;20048;-93
2023/01/06 00:48:25;;;;;;;25.33;7.38;;;10.20;99.90;;;;;;4868899;29;20475;-89
2023/01/06 00:51:20;;;;;;;23.65;6.70;;;10.10;99.90;;;;;;4869414;29;20052;-84
2023/01/06 00:53:49;;;;;;;23.30;5.97;;;9.90;99.90;;;;;;4884585;29;20131;-88
2023/01/06 00:56:36;;;;;;;28.77;6.72;;;10.50;99.90;;;;;;4901400;29;20081;-91
2023/01/06 00:59:05;;;;;;;17.25;6.45;;;11.30;99.90;;;;;;4901892;29;20163;-92
2023/01/06 01:01:35;;;;;;;18.35;6.28;;;10.30;99.90;;;;;;4885423;29;20040;-90
2023/01/06 01:04:07;;;;;;;18.70;6.43;;;11.00;99.90;;;;;;4869219;29;20084;-91
2023/01/06 01:06:35;;;;;;;19.27;5.85;;;10.30;99.90;;;;;;4884611;29;20488;-91
2023/01/06 01:09:17;;;;;;;21.65;5.20;;;10.30;99.90;;;;;;4902174;29;20048;-89
2023/01/06 01:14:31;;;;;;;16.08;4.10;;;11.20;99.90;;;;;;4886068;29;20064;-89
2023/01/06 01:16:57;;;;;;;13.82;3.95;;;10.30;99.90;;;;;;4884829;29;20135;-86
2023/01/06 01:19:23;;;;;;;16.05;4.10;;;10.50;99.90;;;;;;4901249;29;20040;-82
2023/01/06 01:21:49;;;;;;;16.20;4.13;;;10.50;99.90;;;;;;4901234;29;20452;-84
2023/01/06 01:24:20;;;;;;;14.55;3.95;;;11.10;99.90;;;;;;4901426;29;20127;-90
2023/01/06 01:26:52;;;;;;;12.32;4.38;;;10.30;99.90;;;;;;4884316;29;20075;-90
2023/01/06 01:29:24;;;;;;;12.48;3.40;;;10.10;99.90;;;;;;4883945;29;20245;-90
2023/01/06 01:31:56;;;;;;;12.82;3.55;;;10.20;99.90;;;;;;4883993;29;20060;-90
2023/01/06 01:34:22;;;;;;;12.45;3.95;;;10.00;99.90;;;;;;4883734;29;20488;-89
2023/01/06 01:36:59;;;;;;;;;;;;;;;;;;;;;
2023/01/06 01:39:33;;;;;;;16.30;4.32;;;10.20;99.90;;;;;;4883852;29;20506;-82
2023/01/06 01:42:12;;;;;;;10.88;3.80;;;11.10;99.90;;;;;;4883725;29;20080;-86
2023/01/06 01:45:00;;;;;;;15.38;4.72;;;10.20;99.90;;;;;;4900595;29;20045;-89
2023/01/06 01:47:36;;;;;;;17.55;4.82;;;10.20;99.90;;;;;;4900978;29;20048;-88
2023/01/06 01:50:48;;;;;;;19.20;4.78;;;10.20;99.90;;;;;;4868292;29;20068;-92
2023/01/06 01:53:25;;;;;;;25.88;6.30;;;10.20;99.90;;;;;;4876357;29;20167;-90
2023/01/06 01:55:54;;;;;;;12.20;4.13;;;10.20;99.90;;;;;;4865715;29;20136;-87
2023/01/06 01:58:46;;;;;;;15.00;4.80;;;10.20;99.90;;;;;;4880889;29;20128;-89
2023/01/06 02:01:12;;;;;;;14.90;5.28;;;10.10;99.90;;;;;;4898152;29;20056;-87
2023/01/06 02:03:42;;;;;;;14.15;4.60;;;10.20;99.90;;;;;;4897901;29;20071;-90
2023/01/06 02:06:15;;;;;;;16.63;4.88;;;10.20;99.90;;;;;;4897906;29;20045;-89
2023/01/06 02:09:05;;;;;;;14.90;5.50;;;10.20;99.90;;;;;;4898326;29;20163;-84
2023/01/06 02:11:34;;;;;;;10.77;4.25;;;10.10;99.90;;;;;;4865736;29;20049;-88
2023/01/06 02:14:10;;;;;;;17.05;5.18;;;10.90;99.90;;;;;;4880961;29;20056;-89
2023/01/06 02:16:51;;;;;;;18.40;5.00;;;10.40;99.90;;;;;;4898103;29;20040;-83
2023/01/06 02:19:35;;;;;;;21.73;5.35;;;10.20;99.90;;;;;;4897791;29;20049;-88
2023/01/06 02:22:33;;;;;;;16.23;5.10;;;10.20;99.90;;;;;;4897322;29;20059;-87
2023/01/06 02:25:36;;;;;;;14.73;4.97;;;10.20;99.90;;;;;;4897036;29;20423;-88
2023/01/06 02:28:23;;;;;;;14.40;5.82;;;10.20;99.90;;;;;;4787255;29;20063;-88
2023/01/06 02:31:39;;;;;;;15.35;4.93;;;10.20;99.90;;;;;;4772285;29;20082;-85
2023/01/06 02:34:43;;;;;;;;;;;;;;;;;;;;;
2023/01/06 02:37:44;;;;;;;13.82;3.95;;;10.10;99.90;;;;;;4748233;30;20067;-88
2023/01/06 02:40:29;;;;;;;13.10;3.92;;;10.10;99.90;;;;;;4664053;30;20065;-87
2023/01/06 02:43:16;;;;;;;;;;;10.10;99.90;;;;;;4651030;30;20053;-90
2023/01/06 02:45:47;;;;;;;8.73;3.67;;;10.10;99.90;;;;;;4678607;30;19997;-85
2023/01/06 02:48:40;;;;;;;16.02;4.40;;;10.90;99.90;;;;;;4679271;30;20062;-90
2023/01/06 02:51:33;;;;;;;12.20;4.13;;;10.10;99.90;;;;;;4664465;30;20129;-84
2023/01/06 02:54:10;;;;;;;12.38;3.47;;;10.60;99.90;;;;;;4678056;30;20733;-87
2023/01/06 02:56:50;;;;;;;11.10;3.15;;;10.10;99.90;;;;;;4678824;30;20068;-88
2023/01/06 02:59:26;;;;;;;9.48;3.50;;;10.90;99.90;;;;;;4649887;30;20132;-91
2023/01/06 03:01:53;;;;;;;9.82;3.80;;;10.70;99.90;;;;;;4677930;30;20429;-89
2023/01/06 03:04:55;;;;;;;11.27;3.22;;;10.80;99.90;;;;;;4673569;30;20064;-90
2023/01/06 03:07:25;;;;;;;10.23;2.92;;;10.00;99.90;;;;;;4664560;30;20065;-87
2023/01/06 03:09:53;;;;;;;11.35;3.63;;;10.60;99.90;;;;;;4672573;30;20065;-86
2023/01/06 03:13:01;;;;;;;9.07;3.33;;;10.40;99.90;;;;;;4708652;30;20116;-87
2023/01/06 03:15:36;;;;;;;13.43;3.40;;;10.00;99.90;;;;;;4731268;30;20495;-86
2023/01/06 03:18:05;;;;;;;9.07;3.35;;;11.00;99.90;;;;;;4783033;30;20097;-90
2023/01/06 03:20:30;;;;;;;11.38;4.30;;;10.00;99.90;;;;;;4783553;30;20055;-86
2023/01/06 03:23:02;;;;;;;9.75;3.78;;;10.40;99.90;;;;;;4783841;30;20055;-92
2023/01/06 03:25:31;;;;;;;9.40;3.40;;;11.00;99.90;;;;;;4768186;30;20555;-88
2023/01/06 03:27:59;;;;;;;11.38;3.75;;;10.50;99.90;;;;;;4753664;30;20089;-88
2023/01/06 03:30:43;;;;;;;12.35;3.38;;;10.50;99.90;;;;;;4782825;30;20558;-86
2023/01/06 03:36:42;;;;;;;9.38;3.83;;;10.00;99.90;;;;;;4921270;23;20064;-86
2023/01/06 03:39:23;;;;;;;9.43;3.90;;;10.00;99.90;;;;;;4881333;29;20541;-88
2023/01/06 03:45:38;;;;;;;8.55;4.15;;;10.00;99.90;;;;;;4836209;29;20161;-87
2023/01/06 03:48:36;;;;;;;9.75;4.40;;;9.90;99.90;;;;;;4815598;29;20191;-84
2023/01/06 03:51:41;;;;;;;9.95;4.18;;;10.00;99.90;;;;;;4804592;29;20083;-86
2023/01/06 03:54:27;;;;;;;8.73;4.90;;;10.00;99.90;;;;;;4806696;29;20054;-87
2023/01/06 03:57:11;;;;;;;;;;;10.00;99.90;;;;;;4790411;29;20073;-83
2023/01/06 03:59:55;;;;;;;14.57;5.38;;;10.00;99.90;;;;;;4804780;29;20021;-91
2023/01/06 04:02:21;;;;;;;10.30;5.88;;;9.60;99.90;;;;;;4804665;29;20058;-87
2023/01/06 04:05:13;;;;;;;9.85;6.13;;;10.80;99.90;;;;;;4789497;29;20061;-88
2023/01/06 04:07:59;;;;;;;11.98;6.53;;;10.00;99.90;;;;;;4803861;29;20154;-87
2023/01/06 04:10:25;;;;;;;10.80;5.93;;;10.00;99.90;;;;;;4789435;29;20115;-88
2023/01/06 04:12:51;;;;;;;11.60;5.47;;;10.30;99.90;;;;;;4803911;29;20057;-85
2023/01/06 04:15:33;;;;;;;13.52;6.05;;;10.60;99.90;;;;;;4803406;29;20062;-89
2023/01/06 04:18:03;;;;;;;9.77;5.25;;;10.60;99.90;;;;;;4828033;29;20053;-86
2023/01/06 04:20:47;;;;;;;10.85;5.28;;;10.00;99.90;;;;;;4823472;29;20524;-81
2023/01/06 04:23:13;;;;;;;10.83;5.20;;;10.00;99.90;;;;;;4878405;29;20081;-89
2023/01/06 04:25:39;;;;;;;8.90;4.70;;;10.40;99.90;;;;;;4863127;29;20112;-88
2023/01/06 04:28:05;;;;;;;7.25;4.47;;;9.90;99.90;;;;;;4893297;29;20056;-87
2023/01/06 04:30:30;;;;;;;7.40;4.65;;;10.00;99.90;;;;;;4895317;29;20484;-89
2023/01/06 04:33:16;;;;;;;11.32;4.43;;;10.00;99.90;;;;;;4909997;29;20408;-88
2023/01/06 04:35:42;;;;;;;;;;;10.00;99.90;;;;;;4881719;29;20067;-86
2023/01/06 04:38:08;;;;;;;7.55;3.00;;;10.00;99.90;;;;;;4914206;29;20664;-89
2023/01/06 04:40:36;;;;;;;6.35;3.90;;;10.90;99.90;;;;;;4924355;23;20509;-83
2023/01/06 04:43:05;;;;;;;8.02;3.85;;;10.30;99.90;;;;;;4859000;29;20663;-90
2023/01/06 04:45:55;;;;;;;10.48;3.70;;;10.50;99.90;;;;;;4859414;29;20371;-85
2023/01/06 04:48:20;;;;;;;6.95;3.38;;;10.00;99.90;;;;;;4851289;29;20477;-90
2023/01/06 04:50:59;;;;;;;8.68;3.40;;;10.30;99.90;;;;;;4875833;29;20084;-86
2023/01/06 04:53:28;;;;;;;6.80;3.00;;;10.10;99.90;;;;;;4844397;29;20057;-90
2023/01/06 04:56:14;;;;;;;7.47;3.15;;;10.30;99.90;;;;;;4859502;29;20068;-90
2023/01/06 04:58:39;;;;;;;10.23;3.50;;;10.00;99.90;;;;;;4857877;29;20056;-86
2023/01/06 05:01:09;;;;;;;10.52;3.63;;;10.40;99.90;;;;;;4844032;29;20209;-91
2023/01/06 05:03:35;;;;;;;6.18;3.17;;;10.50;99.90;;;;;;4860589;29;20144;-85
2023/01/06 05:06:30;;;;;;;8.32;3.00;;;10.00;99.90;;;;;;4877049;29;20497;-89
2023/01/06 05:08:55;;;;;;;4.53;2.67;;;10.10;99.90;;;;;;4859749;29;20484;-89
2023/01/06 05:14:09;;;;;;;7.35;2.80;;;11.00;99.90;;;;;;4862160;29;20142;-88
2023/01/06 05:16:38;;;;;;;6.03;2.22;;;10.00;99.90;;;;;;4876576;29;20053;-88
2023/01/06 05:19:14;;;;;;;8.75;2.70;;;10.10;99.90;;;;;;4873916;29;20575;-89
2023/01/06 05:21:40;;;;;;;7.80;2.47;;;10.90;99.90;;;;;;4858727;29;20143;-90
2023/01/06 05:24:05;;;;;;;10.80;2.67;;;10.90;99.90;;;;;;4874226;29;20060;-91
2023/01/06 05:26:34;;;;;;;7.55;2.60;;;10.10;99.90;;;;;;4842987;29;20049;-89
2023/01/06 05:29:00;;;;;;;7.32;2.85;;;10.10;99.90;;;;;;4862021;29;20061;-89
2023/01/06 05:31:29;;;;;;;5.50;2.95;;;10.70;99.90;;;;;;4861334;29;20071;-90
2023/01/06 05:34:15;;;;;;;9.73;3.13;;;10.50;99.90;;;;;;4825111;29;20155;-90
2023/01/06 05:36:41;;;;;;;9.32;3.38;;;10.30;99.90;;;;;;4825188;29;20065;-84
2023/01/06 05:39:07;;;;;;;10.85;3.75;;;10.70;99.90;;;;;;4810440;29;20137;-94
2023/01/06 05:41:38;;;;;;;8.23;4.10;;;10.00;99.90;;;;;;4838694;29;20097;-89
2023/01/06 05:44:04;;;;;;;7.20;4.15;;;10.30;99.90;;;;;;4858797;29;20883;-89
2023/01/06 05:46:36;;;;;;;6.60;4.43;;;10.40;99.90;;;;;;4858460;29;20065;-92
2023/01/06 05:49:17;;;;;;;10.27;4.93;;;10.60;99.90;;;;;;4843282;29;20496;-89
2023/01/06 05:51:42;;;;;;;7.93;4.95;;;10.90;99.90;;;;;;4843327;29;20065;-90
2023/01/06 05:54:08;;;;;;;7.20;5.05;;;10.40;99.90;;;;;;4858528;29;20148;-90
2023/01/06 05:56:37;;;;;;;9.30;5.30;;;10.20;99.90;;;;;;4858618;29;20576;-89
2023/01/06 05:59:03;;;;;;;10.93;5.72;;;9.30;99.90;;;;;;4843229;29;20061;-86
2023/01/06 06:04:12;;;;;;;7.65;5.43;;;9.70;99.90;;;;;;4902929;23;20108;-87
2023/01/06 06:06:47;;;;;;;12.40;6.10;;;9.70;99.90;;;;;;4899404;29;20048;-88
2023/01/06 06:09:12;;;;;;;6.85;5.55;;;9.70;99.90;;;;;;4882347;29;20044;-86
2023/01/06 06:11:38;;;;;;;10.00;5.80;;;9.90;99.90;;;;;;4899784;29;20051;-93
2023/01/06 06:14:05;;;;;;;10.13;5.57;;;9.70;99.90;;;;;;4865537;29;20429;-87
2023/01/06 06:16:34;;;;;;;8.13;5.50;;;10.50;99.90;;;;;;4881221;29;20052;-90
2023/01/06 06:18:59;;;;;;;8.55;5.43;;;10.30;99.90;;;;;;4881528;29;20048;-82
2023/01/06 06:21:27;;;;;;;8.73;5.28;;;9.70;99.90;;;;;;4898347;29;20063;-90
2023/01/06 06:23:55;;;;;;;13.57;6.00;;;9.70;99.90;;;;;;4897900;29;20048;-89
2023/01/06 06:26:21;;;;;;;8.57;5.75;;;10.20;99.90;;;;;;4865145;29;20478;-88
2023/01/06 06:28:47;;;;;;;11.40;4.95;;;9.50;99.90;;;;;;4880932;29;20052;-87
2023/01/06 06:31:17;;;;;;;8.95;4.72;;;10.30;99.90;;;;;;4880621;29;20480;-87
2023/01/06 06:33:42;;;;;;;8.55;5.03;;;10.50;99.90;;;;;;4880289;29;20419;-88
2023/01/06 06:36:14;;;;;;;10.55;5.05;;;10.30;99.90;;;;;;4897466;29;20056;-90
2023/01/06 06:38:44;;;;;;;11.05;5.07;;;9.60;99.90;;;;;;4880069;29;20059;-89
2023/01/06 06:41:10;;;;;;;9.68;5.40;;;9.60;99.90;;;;;;4880354;29;20055;-87
2023/01/06 06:43:36;;;;;;;11.25;4.50;;;9.60;99.90;;;;;;4880419;29;20056;-87
2023/01/06 06:46:02;;;;;;;10.30;5.97;;;10.50;99.90;;;;;;4897238;29;20124;-87
2023/01/06 06:48:28;;;;;;;9.13;4.85;;;9.60;99.90;;;;;;4864530;29;20139;-86
2023/01/06 06:51:05;;;;;;;6.85;4.88;;;10.30;99.90;;;;;;4896753;29;20049;-88
2023/01/06 06:53:32;;;;;;;6.95;4.25;;;9.60;99.90;;;;;;4864195;29;20055;-89
2023/01/06 06:55:58;;;;;;;9.00;4.05;;;10.00;99.90;;;;;;4897253;29;20921;-85
2023/01/06 06:58:24;;;;;;;5.68;4.53;;;10.50;99.90;;;;;;4897248;29;20071;-84
2023/01/06 07:00:50;;;;;;;6.95;4.60;;;9.70;99.90;;;;;;4880226;29;20487;-85
2023/01/06 07:03:16;;;;;;;10.07;4.22;;;9.60;99.90;;;;;;4896964;29;20144;-83
2023/01/06 07:05:44;;;;;;;7.43;4.10;;;9.60;99.90;;;;;;4880140;29;20827;-87
2023/01/06 07:08:10;;;;;;;7.55;4.22;;;10.30;99.90;;;;;;4896383;29;20416;-89
2023/01/06 07:10:36;;;;;;;6.93;3.88;;;9.60;99.90;;;;;;4880060;29;20053;-83
2023/01/06 07:13:02;;;;;;;5.65;3.25;;;10.30;99.90;;;;;;4896513;29;20055;-84
2023/01/06 07:15:31;;;;;;;5.13;2.70;;;10.30;99.90;;;;;;4864560;29;20058;-86
2023/01/06 07:18:01;;;;;;;5.45;2.58;;;10.20;99.90;;;;;;4896918;29;20051;-87
2023/01/06 07:20:29;;;;;;;4.05;1.95;;;10.50;99.90;;;;;;4879676;29;20492;-84
2023/01/06 07:22:54;;;;;;;4.70;1.48;;;10.30;99.90;;;;;;4896604;29;20056;-86
2023/01/06 07:25:20;;;;;;;4.03;1.60;;;10.50;99.90;;;;;;4897023;29;20468;-85
2023/01/06 07:27:46;;;;;;;2.05;1.23;;;9.90;99.90;;;;;;4896877;29;20408;-82
2023/01/06 07:30:15;;;;;;;5.55;1.88;;;10.70;99.90;;;;;;4896248;29;20484;-87
2023/01/06 07:32:40;;;;;;;4.70;1.60;;;10.50;99.90;;;;;;4897016;29;20074;-87
2023/01/06 07:35:06;;;;;;;4.00;1.50;;;10.40;99.90;;;;;;4879965;29;20500;-87
2023/01/06 07:37:32;;;;;;;2.97;1.48;;;9.80;99.90;;;;;;4864585;29;20067;-87
2023/01/06 07:39:57;;;;;;;3.78;1.95;;;9.80;99.90;;;;;;4879903;29;20096;-86
2023/01/06 07:42:23;;;;;;;5.10;1.42;;;10.20;99.90;;;;;;4896552;29;20044;-83
2023/01/06 07:44:49;;;;;;;7.32;1.50;;;9.80;99.90;;;;;;4897066;29;20795;-88
2023/01/06 07:47:15;;;;;;;8.43;1.10;;;10.30;99.90;;;;;;4880415;29;20055;-89
2023/01/06 07:49:40;;;;;;;6.03;1.35;;;9.90;99.90;;;;;;4896809;29;20108;-85
2023/01/06 07:52:09;;;;;;;7.28;0.95;;;10.50;99.90;;;;;;4885035;29;20051;-87
2023/01/06 07:54:34;;;;;;;1.75;0.68;;;9.40;99.90;;;;;;4892945;29;20056;-88
2023/01/06 07:57:00;;;;;;;5.00;0.90;;;10.40;99.90;;;;;;4905536;29;20431;-84
2023/01/06 07:59:25;;;;;;;5.88;1.10;;;10.20;99.90;;;;;;4868185;29;20054;-89
2023/01/06 08:01:56;;;;;;;5.25;0.75;;;9.20;99.90;;;;;;4889540;29;20107;-86
2023/01/06 08:04:45;;;;;;;4.10;0.70;;;9.60;99.90;;;;;;4876772;29;20077;-87
2023/01/06 08:07:31;;;;;;;5.60;0.65;;;9.80;99.90;;;;;;4858691;29;20140;-85
2023/01/06 08:09:57;;;;;;;5.15;0.85;;;8.80;99.90;;;;;;4846489;29;20049;-83
2023/01/06 08:12:24;;;;;;;6.45;0.70;;;9.20;99.90;;;;;;4878126;29;20132;-88
2023/01/06 08:14:56;;;;;;;5.38;1.10;;;9.70;99.90;;;;;;4877280;29;20065;-89
2023/01/06 08:17:29;;;;;;;5.32;1.00;;;8.70;99.90;;;;;;4844452;29;20056;-87
2023/01/06 08:20:15;;;;;;;10.30;0.75;;;8.60;99.90;;;;;;4860908;29;20167;-90
2023/01/06 08:25:12;;;;;;;4.25;0.80;;;8.50;99.90;;;;;;4918364;23;20055;-87
2023/01/06 08:27:51;;;;;;;7.40;1.00;;;8.40;99.90;;;;;;4881871;29;20127;-89
2023/01/06 08:30:20;;;;;;;7.72;1.02;;;8.90;99.90;;;;;;4914420;29;20508;-87
2023/01/06 08:32:56;;;;;;;8.07;0.90;;;8.50;99.90;;;;;;4891436;29;20408;-89
2023/01/06 08:35:25;;;;;;;5.72;1.13;;;8.80;99.90;;;;;;4895414;29;20056;-87
2023/01/06 08:38:00;;;;;;;9.77;0.90;;;9.00;99.90;;;;;;4888680;29;20068;-90
2023/01/06 08:40:26;;;;;;;8.45;1.25;;;8.10;99.90;;;;;;4914212;29;20579;-88
2023/01/06 08:42:51;;;;;;;8.18;1.02;;;8.10;99.90;;;;;;4897380;29;20135;-86
2023/01/06 08:45:17;;;;;;;5.00;0.85;;;8.00;99.90;;;;;;4897153;29;20059;-86
2023/01/06 08:47:46;;;;;;;6.65;0.80;;;8.80;99.90;;;;;;4905026;23;20089;-88
2023/01/06 08:50:21;;;;;;;15.82;1.88;;;9.10;99.90;;;;;;4878123;29;20104;-88
2023/01/06 08:52:55;;;;;;;5.28;0.95;;;7.90;99.90;;;;;;4863042;29;20079;-89
2023/01/06 08:55:21;;;;;;;12.35;1.50;;;7.90;99.90;;;;;;4895135;29;20047;-89
2023/01/06 08:57:46;;;;;;;10.88;1.23;;;7.90;99.90;;;;;;4895468;29;20060;-89
2023/01/06 09:00:24;;;;;;;9.23;1.50;;;8.90;99.90;;;;;;4894678;29;20528;-87
2023/01/06 09:03:11;;;;;;;9.40;1.15;;;7.20;99.90;;;;;;4889920;29;20060;-90
2023/01/06 09:05:43;;;;;;;11.48;1.45;;;8.60;99.90;;;;;;4899553;29;20060;-92
2023/01/06 09:08:24;;;;;;;11.00;1.20;;;8.20;99.90;;;;;;4882713;29;20058;-88
2023/01/06 09:10:54;;;;;;;13.77;1.50;;;7.90;99.90;;;;;;4867095;29;20064;-86
2023/01/06 09:13:30;;;;;;;13.27;1.30;;;9.00;99.90;;;;;;4898736;29;20127;-87
2023/01/06 09:15:56;;;;;;;7.22;1.20;;;7.80;99.90;;;;;;4866511;29;20045;-88
2023/01/06 09:18:48;;;;;;;15.00;1.73;;;9.00;99.90;;;;;;4886414;23;20064;-91
2023/01/06 09:24:23;;;;;;;14.77;1.38;;;7.90;99.90;;;;;;4872285;29;20092;-91
2023/01/06 09:26:58;;;;;;;13.48;1.42;;;8.40;99.90;;;;;;4879593;29;20497;-90
2023/01/06 09:29:23;;;;;;;10.02;1.33;;;7.90;99.90;;;;;;4860873;29;20125;-87
2023/01/06 09:32:17;;;;;;;12.10;1.65;;;8.00;99.90;;;;;;4860209;29;20501;-90
2023/01/06 09:34:45;;;;;;;13.55;1.70;;;7.90;99.90;;;;;;4867549;23;20417;-88
2023/01/06 09:40:26;;;;;;;11.73;1.25;;;9.20;99.90;;;;;;4876619;29;20444;-91
2023/01/06 09:43:08;;;;;;;14.00;1.50;;;8.30;99.90;;;;;;4862652;29;20465;-93
2023/01/06 09:45:52;;;;;;;16.30;1.50;;;8.90;99.90;;;;;;4879782;29;20159;-90
2023/01/06 09:48:55;;;;;;;20.15;2.60;;;8.20;99.90;;;;;;4847663;29;20041;-85
2023/01/06 09:51:37;;;;;;;17.83;1.73;;;8.30;99.90;;;;;;4847767;29;20385;-88
2023/01/06 09:55:09;;;;;;;12.07;1.58;;;8.40;99.90;;;;;;4863082;29;20053;-87
2023/01/06 09:57:46;;;;;;;11.93;1.58;;;8.10;99.90;;;;;;4806561;29;20070;-90
2023/01/06 10:00:45;;;;;;;10.90;1.15;;;8.20;99.90;;;;;;4793214;29;20055;-87
2023/01/06 10:03:22;;;;;;;9.10;1.33;;;8.40;99.90;;;;;;4792535;29;20593;-86
2023/01/06 10:06:59;;;;;;;10.52;1.08;;;8.80;99.90;;;;;;4814945;29;20137;-89
2023/01/06 10:09:47;;;;;;;17.35;1.55;;;8.90;99.90;;;;;;4825437;29;20093;-88
2023/01/06 10:16:33;;;;;;;8.98;1.58;;;9.00;99.90;;;;;;4905186;23;20485;-91
2023/01/06 10:19:10;;;;;;;17.15;1.55;;;9.20;99.90;;;;;;4865602;29;20492;-89
2023/01/06 10:22:11;;;;;;;12.48;2.08;;;8.70;99.90;;;;;;4880745;29;20052;-89
2023/01/06 10:24:56;;;;;;;12.30;1.27;;;9.30;99.90;;;;;;4859203;29;20126;-86
2023/01/06 10:27:45;;;;;;;12.48;1.50;;;9.40;99.90;;;;;;4876514;23;20428;-86
2023/01/06 10:30:43;;;;;;;9.77;1.63;;;9.50;99.90;;;;;;4916169;29;20060;-86
2023/01/06 10:33:40;;;;;;;9.65;1.20;;;9.50;99.90;;;;;;4916616;29;20043;-88
2023/01/06 10:36:38;;;;;;;10.77;1.52;;;10.60;99.90;;;;;;4899414;29;20419;-91
2023/01/06 10:39:12;;;;;;;10.15;2.00;;;9.50;99.90;;;;;;4883646;29;20059;-85
2023/01/06 10:42:54;;;;;;;10.25;1.20;;;9.70;99.90;;;;;;4883409;29;20059;-87
2023/01/06 10:44:41;;;;;;;16.88;2.38;;;9.60;99.90;;;;;;4898849;29;20067;-84
2023/01/06 10:47:23;;;;;;;17.50;1.52;;;9.60;99.90;;;;;;4899440;29;20052;-80
2023/01/06 10:49:48;;;;;;;14.00;1.50;;;10.60;99.90;;;;;;4897139;29;20072;-81
2023/01/06 10:52:14;;;;;;;9.70;1.48;;;10.20;99.90;;;;;;4897243;29;20037;-84
2023/01/06 10:54:42;;;;;;;10.00;1.48;;;10.40;99.90;;;;;;4879934;29;20059;-82
2023/01/06 10:57:38;;;;;;;13.88;1.13;;;9.60;99.90;;;;;;4913342;29;20056;-85
2023/01/06 11:00:11;;;;;;;10.50;1.42;;;9.80;99.90;;;;;;4890162;29;20131;-86
2023/01/06 11:02:49;;;;;;;8.02;1.08;;;9.50;99.90;;;;;;4916077;29;20526;-86
2023/01/06 11:05:29;;;;;;;7.60;1.40;;;10.40;99.90;;;;;;4883516;29;20119;-86
2023/01/06 11:08:11;;;;;;;9.10;1.27;;;9.40;99.90;;;;;;4899346;29;20052;-86
2023/01/06 11:10:59;;;;;;;13.63;1.75;;;9.40;99.90;;;;;;4915846;29;20059;-85
2023/01/06 11:13:27;;;;;;;9.68;1.52;;;9.30;99.90;;;;;;4804722;29;20058;-86
2023/01/06 11:15:57;;;;;;;10.60;1.23;;;9.80;99.90;;;;;;4804972;29;20090;-86
2023/01/06 11:18:33;;;;;;;7.88;1.42;;;9.40;99.90;;;;;;4821167;29;20066;-91
2023/01/06 11:21:15;;;;;;;13.50;1.40;;;9.50;99.90;;;;;;4791407;29;20121;-86
2023/01/06 11:23:48;;;;;;;12.57;1.50;;;9.50;99.90;;;;;;4855929;24;20052;-90
2023/01/06 11:26:22;;;;;;;12.32;1.42;;;9.50;99.90;;;;;;4878335;23;20056;-90
2023/01/06 11:28:53;;;;;;;14.13;1.58;;;9.80;99.90;;;;;;4884738;29;20408;-90
2023/01/06 11:31:27;;;;;;;12.32;1.65;;;10.80;99.90;;;;;;4916033;29;20404;-90
2023/01/06 11:33:54;;;;;;;8.98;1.33;;;9.70;99.90;;;;;;4884050;29;20088;-88
2023/01/06 11:36:27;;;;;;;13.98;2.15;;;10.40;99.90;;;;;;4899853;29;20131;-87
2023/01/06 11:39:41;;;;;;;14.43;1.20;;;10.50;99.90;;;;;;4883669;29;20056;-92
2023/01/06 11:42:28;;;;;;;10.60;1.60;;;9.80;99.90;;;;;;4896790;29;20064;-93
2023/01/06 11:44:59;;;;;;;17.92;1.65;;;10.40;99.90;;;;;;4806130;29;20518;-90
2023/01/06 11:47:28;;;;;;;10.23;1.60;;;9.90;99.90;;;;;;4804211;29;20090;-88
2023/01/06 11:50:04;;;;;;;12.23;1.40;;;10.10;99.90;;;;;;4804187;29;20063;-90
2023/01/06 11:52:32;;;;;;;11.52;1.40;;;9.80;99.90;;;;;;4791624;29;20053;-83
2023/01/06 11:55:09;;;;;;;12.38;1.27;;;10.80;99.90;;;;;;4797072;29;20059;-86
2023/01/06 11:58:12;;;;;;;9.10;1.58;;;10.90;99.90;;;;;;4807749;29;20055;-86
2023/01/06 12:01:03;;;;;;;7.32;1.10;;;10.00;99.90;;;;;;4790561;29;20134;-86
2023/01/06 12:03:35;;;;;;;14.48;1.83;;;10.00;99.90;;;;;;4832386;29;20082;-87
2023/01/06 12:06:06;;;;;;;11.25;1.25;;;10.00;99.90;;;;;;4816281;29;20059;-85
2023/01/06 12:09:05;;;;;;;14.10;1.77;;;10.10;99.90;;;;;;4793422;29;20153;-87
2023/01/06 12:11:49;;;;;;;23.17;1.83;;;10.00;99.90;;;;;;4821367;29;20059;-90
2023/01/06 12:14:37;;;;;;;6.77;1.13;;;10.00;99.90;;;;;;4790023;29;20094;-88
2023/01/06 12:17:41;;;;;;;13.48;1.98;;;10.60;99.90;;;;;;4788644;29;20839;-89
2023/01/06 12:20:32;;;;;;;15.32;1.67;;;10.00;99.90;;;;;;4817978;29;20058;-89
2023/01/06 12:23:32;;;;;;;10.23;1.45;;;10.00;99.90;;;;;;4854325;29;20056;-91
2023/01/06 12:26:15;;;;;;;9.55;1.50;;;10.00;99.90;;;;;;4863428;29;20068;-87
2023/01/06 12:28:52;;;;;;;9.75;1.20;;;10.00;99.90;;;;;;4895532;29;20057;-89
2023/01/06 12:31:49;;;;;;;14.77;1.65;;;9.90;99.90;;;;;;4891637;29;20147;-87
2023/01/06 12:37:23;;;;;;;19.90;2.22;;;9.80;99.90;;;;;;4888239;27;20432;-84
2023/01/06 12:40:13;;;;;;;12.88;1.48;;;9.80;99.90;;;;;;4877136;24;20519;-87
2023/01/06 12:43:14;;;;;;;11.75;1.73;;;9.20;99.90;;;;;;4880784;29;20056;-86
2023/01/06 12:46:16;;;;;;;11.10;1.85;;;9.70;99.90;;;;;;4914950;29;20039;-91
2023/01/06 12:49:11;;;;;;;14.32;1.77;;;9.70;99.90;;;;;;4897294;29;20385;-91
2023/01/06 12:55:36;;;;;;;14.27;1.77;;;9.70;99.90;;;;;;4913519;29;20056;-90
2023/01/06 12:58:07;;;;;;;14.40;1.52;;;10.20;99.90;;;;;;4882063;29;20104;-88
2023/01/06 13:01:23;;;;;;;10.43;1.50;;;10.50;99.90;;;;;;4897493;29;20044;-89
2023/01/06 13:04:29;;;;;;;9.48;1.63;;;9.10;99.90;;;;;;4749833;30;20154;-88
2023/01/06 13:07:30;;;;;;;15.55;1.80;;;9.60;99.90;;;;;;4750267;30;20063;-90
2023/01/06 13:09:58;;;;;;;14.02;1.77;;;9.70;99.90;;;;;;4726412;30;20095;-87
2023/01/06 13:12:55;;;;;;;9.57;1.27;;;9.40;99.90;;;;;;4765059;30;20090;-91
2023/01/06 13:15:47;;;;;;;18.33;2.20;;;9.30;99.90;;;;;;4749494;30;20068;-87
2023/01/06 13:18:20;;;;;;;8.90;1.52;;;9.30;99.90;;;;;;4764999;30;20612;-87
2023/01/06 13:20:57;;;;;;;11.68;1.58;;;10.30;99.90;;;;;;4749620;30;20071;-85
2023/01/06 13:24:00;;;;;;;10.88;1.15;;;10.30;99.90;;;;;;4733735;30;20048;-86
2023/01/06 13:29:56;;;;;;;5.68;1.38;;;9.20;99.90;;;;;;4764868;30;20054;-86
2023/01/06 13:33:05;;;;;;;16.23;1.75;;;9.20;99.90;;;;;;4749535;30;20056;-88
2023/01/06 13:36:07;;;;;;;13.73;1.42;;;9.10;99.90;;;;;;4749514;30;20541;-90
2023/01/06 13:39:23;;;;;;;9.10;1.33;;;9.10;99.90;;;;;;4750305;30;20066;-91
2023/01/06 13:42:19;;;;;;;11.00;1.40;;;9.00;99.90;;;;;;4864576;29;20581;-90
2023/01/06 13:44:54;;;;;;;15.75;2.30;;;9.00;99.90;;;;;;4857056;29;20156;-91
2023/01/06 13:47:21;;;;;;;;;;;9.80;99.90;;;;;;4858178;29;20068;-85
2023/01/06 13:49:51;;;;;;;17.25;1.98;;;9.40;99.90;;;;;;4859823;29;20104;-90
2023/01/06 13:53:03;;;;;;;13.05;1.83;;;9.00;99.90;;;;;;4861366;29;20057;-87
2023/01/06 13:55:45;;;;;;;;;;;;;;;;;;;;;
2023/01/06 13:58:27;;;;;;;9.88;1.30;;;8.90;99.90;;;;;;4805123;29;20065;-94
2023/01/06 14:04:41;;;;;;;7.00;1.20;;;9.50;99.90;;;;;;4788858;29;20059;-90
2023/01/06 14:07:34;;;;;;;7.95;1.65;;;9.80;99.90;;;;;;4773537;29;20054;-89
2023/01/06 14:15:02;;;;;;;13.55;2.00;;;8.80;99.90;;;;;;4737724;30;20063;-93
2023/01/06 14:18:39;;;;;;;;;;;;;;;;;;;;;
2023/01/06 14:23:55;;;;;;;15.60;2.25;;;8.80;99.90;;;;;;4070322;27;20063;-91
2023/01/06 14:27:01;;;;;;;8.80;1.52;;;9.80;99.90;;;;;;4887354;29;20055;-89
2023/01/06 14:32:59;;;;;;;19.10;1.90;;;8.80;99.90;;;;;;4969613;23;20060;-90
2023/01/06 14:39:44;;;;;;;12.63;1.58;;;8.70;99.90;;;;;;4844726;23;20084;-87
2023/01/06 14:42:56;;;;;;;;;;;;;;;;;;;;;
2023/01/06 14:45:48;;;;;;;14.55;2.22;;;8.70;99.90;;;;;;4792745;29;20069;-90